Time;durP1;ratioP1;P1;durP2;ratioP2;P2;SDS_P1;SDS_P2;PMS_P1;PMS_P2;Temp;Humidity;BMP_temperature;BMP_pressure;BME280_temperature;BME280_humidity;BME280_pressure;Samples;Min_cycle;Max_cycle;Signal;HPM_P1;HPM_P2
2021/12/04 00:00:08;;;;;;;6.83;5.10;;;;;;;2.69;100.00;99831.53;2065067;28;20045;-66
2021/12/04 00:01:12;;;;;;;10.88;5.97;;;;;;;2.70;100.00;99820.34;2065954;28;20349;-66
2021/12/04 00:02:12;;;;;;;8.02;5.32;;;;;;;2.70;100.00;99820.34;2073859;28;20026;-67
2021/12/04 00:03:13;;;;;;;6.13;5.53;;;;;;;2.71;100.00;99827.22;2073676;28;20549;-66
2021/12/04 00:04:20;;;;;;;6.43;5.32;;;;;;;2.70;100.00;99810.91;2073929;28;20038;-66
2021/12/04 00:05:21;;;;;;;8.00;5.13;;;;;;;2.71;100.00;99811.75;2073799;28;20029;-66
2021/12/04 00:06:27;;;;;;;5.72;5.18;;;;;;;2.69;100.00;99818.66;2073804;28;20105;-66
2021/12/04 00:07:30;;;;;;;6.75;4.90;;;;;;;2.71;100.00;99816.91;2073746;28;20040;-66
2021/12/04 00:08:33;;;;;;;9.50;5.45;;;;;;;2.71;100.00;99809.19;2073846;28;20030;-66
2021/12/04 00:09:34;;;;;;;6.05;4.93;;;;;;;2.72;100.00;99815.16;2073764;28;20404;-66
2021/12/04 00:10:34;;;;;;;8.35;5.97;;;;;;;2.72;100.00;99805.69;2073812;28;20025;-66
2021/12/04 00:11:37;;;;;;;6.63;4.93;;;;;;;2.72;100.00;99805.69;2073760;28;20026;-66
2021/12/04 00:12:38;;;;;;;6.38;5.18;;;;;;;2.72;100.00;99805.69;2073760;28;20030;-66
2021/12/04 00:13:38;;;;;;;8.90;5.57;;;;;;;2.72;100.00;99803.13;2073786;28;20018;-66
2021/12/04 00:14:38;;;;;;;5.97;5.17;;;;;;;2.73;100.00;99796.25;2073766;28;20022;-66
2021/12/04 00:15:39;;;;;;;5.87;4.93;;;;;;;2.73;100.00;99794.50;2073647;28;20277;-66
2021/12/04 00:16:39;;;;;;;6.57;4.83;;;;;;;2.73;100.00;99789.34;2073775;28;20032;-66
2021/12/04 00:17:39;;;;;;;7.77;4.63;;;;;;;2.70;100.00;99784.28;2073742;28;20329;-66
2021/12/04 00:18:40;;;;;;;6.50;4.77;;;;;;;2.73;100.00;99780.78;2073782;28;20079;-66
2021/12/04 00:19:40;;;;;;;7.20;5.03;;;;;;;2.70;100.00;99774.81;2073672;28;20487;-66
2021/12/04 00:20:41;;;;;;;5.70;4.90;;;;;;;2.70;100.00;99773.97;2065034;28;20034;-65
2021/12/04 00:21:42;;;;;;;7.32;5.38;;;;;;;2.70;100.00;99771.38;2065076;28;20376;-66
2021/12/04 00:22:42;;;;;;;6.57;5.03;;;;;;;2.72;100.00;99761.03;2073814;28;20046;-66
2021/12/04 00:23:42;;;;;;;7.63;5.93;;;;;;;2.71;100.00;99770.53;2064778;28;20051;-65
2021/12/04 00:24:43;;;;;;;4.77;4.07;;;;;;;2.71;100.00;99770.53;2056891;28;20031;-66
2021/12/04 00:25:43;;;;;;;5.77;5.17;;;;;;;2.72;100.00;99763.63;2065043;28;20465;-66
2021/12/04 00:26:44;;;;;;;5.40;4.70;;;;;;;2.72;100.00;99764.47;2073691;28;20050;-66
2021/12/04 00:27:44;;;;;;;6.20;4.70;;;;;;;2.73;100.00;99766.16;2073618;28;20045;-67
2021/12/04 00:28:44;;;;;;;8.40;5.67;;;;;;;2.74;100.00;99772.16;2073680;28;20072;-66
2021/12/04 00:29:45;;;;;;;5.60;5.00;;;;;;;2.74;100.00;99775.56;2073643;28;20029;-67
2021/12/04 00:30:46;;;;;;;4.60;4.20;;;;;;;2.74;100.00;99762.69;2064917;28;20022;-67
2021/12/04 00:31:53;;;;;;;6.30;5.47;;;;;;;2.71;100.00;99767.94;2065079;28;20109;-66
2021/12/04 00:33:02;;;;;;;8.95;4.50;;;;;;;2.73;100.00;99763.59;2073622;28;20022;-67
2021/12/04 00:34:03;;;;;;;5.70;5.10;;;;;;;2.75;100.00;99766.97;2064809;28;20108;-66
2021/12/04 00:36:40;;;;;;;7.22;4.20;;;;;;;2.75;100.00;99769.56;2073750;28;20034;-66
2021/12/04 00:49:46;;;;;;;6.07;4.82;;;;;;;2.80;100.00;99754.81;2048539;28;20050;-67
2021/12/04 00:50:46;;;;;;;6.40;5.10;;;;;;;2.82;100.00;99747.03;2048579;29;20055;-67
2021/12/04 00:51:55;;;;;;;5.93;5.10;;;;;;;2.83;100.00;99743.56;2050257;28;20063;-67
2021/12/04 00:52:56;;;;;;;5.88;4.95;;;;;;;2.81;100.00;99743.59;2073514;28;20029;-66
2021/12/04 00:53:56;;;;;;;6.35;4.75;;;;;;;2.81;100.00;99746.19;2073562;28;20018;-66
2021/12/04 00:54:57;;;;;;;7.93;5.77;;;;;;;2.81;100.00;99745.34;2073589;28;20102;-66
2021/12/04 00:55:57;;;;;;;6.47;5.07;;;;;;;2.81;100.00;99742.78;2073550;28;20463;-67
2021/12/04 00:56:57;;;;;;;6.30;4.90;;;;;;;2.82;100.00;99740.16;2073586;28;20029;-66
2021/12/04 00:57:58;;;;;;;7.33;5.57;;;;;;;2.82;100.00;99745.31;2073541;28;20053;-66
2021/12/04 00:58:58;;;;;;;6.43;5.33;;;;;;;2.81;100.00;99741.03;2064717;28;20031;-66
2021/12/04 00:59:59;;;;;;;6.37;4.80;;;;;;;2.81;100.00;99751.34;2064843;28;20073;-66
2021/12/04 01:00:59;;;;;;;7.63;5.72;;;;;;;2.83;100.00;99749.56;2073461;28;20670;-66
2021/12/04 01:02:00;;;;;;;6.17;4.60;;;;;;;2.85;100.00;99751.25;2064724;28;20484;-66
2021/12/04 01:03:00;;;;;;;7.15;5.65;;;;;;;2.84;100.00;99747.81;2064733;28;20654;-66
2021/12/04 01:04:01;;;;;;;6.93;5.03;;;;;;;2.84;100.00;99745.25;2064636;28;20040;-66
2021/12/04 01:05:02;;;;;;;5.90;5.07;;;;;;;2.85;100.00;99748.69;2064837;28;20141;-66
2021/12/04 01:06:02;;;;;;;5.40;4.03;;;;;;;2.83;100.00;99744.41;2073401;28;20031;-66
2021/12/04 01:07:03;;;;;;;5.60;4.57;;;;;;;2.85;100.00;99746.09;2073465;28;20058;-66
2021/12/04 01:08:03;;;;;;;5.65;5.05;;;;;;;2.85;100.00;99740.94;2073670;28;20022;-66
2021/12/04 01:09:09;;;;;;;5.97;5.10;;;;;;;2.85;100.00;99746.09;2073607;28;20033;-66
2021/12/04 01:10:10;;;;;;;7.85;5.30;;;;;;;2.87;100.00;99749.50;2073425;28;20025;-66
2021/12/04 01:11:10;;;;;;;6.47;4.97;;;;;;;2.87;100.00;99745.16;2073509;28;20052;-66
2021/12/04 01:12:11;;;;;;;5.87;5.27;;;;;;;2.88;100.00;99746.03;2073529;28;20026;-65
2021/12/04 01:13:11;;;;;;;6.50;5.03;;;;;;;2.88;100.00;99756.31;2073674;28;20053;-66
2021/12/04 01:14:14;;;;;;;6.30;4.90;;;;;;;2.88;100.00;99746.03;2064742;28;20111;-66
2021/12/04 01:15:15;;;;;;;8.02;5.30;;;;;;;2.89;100.00;99752.84;2065020;28;20479;-66
2021/12/04 01:16:15;;;;;;;6.97;5.03;;;;;;;2.89;100.00;99753.72;2064553;28;20117;-66
2021/12/04 01:17:15;;;;;;;6.03;5.17;;;;;;;2.90;100.00;99755.41;2064879;28;20030;-66
2021/12/04 01:18:16;;;;;;;5.97;5.03;;;;;;;2.90;100.00;99750.25;2073399;28;20096;-66
2021/12/04 01:19:19;;;;;;;6.07;5.47;;;;;;;2.89;100.00;99758.00;2064729;28;20073;-66
2021/12/04 01:20:19;;;;;;;6.18;5.03;;;;;;;2.90;100.00;99755.41;2065065;28;20041;-66
2021/12/04 01:21:19;;;;;;;6.60;5.57;;;;;;;2.90;100.00;99755.41;2073481;28;20047;-66
2021/12/04 01:22:21;;;;;;;6.63;4.83;;;;;;;2.91;100.00;99761.41;2073551;28;20029;-66
2021/12/04 01:23:21;;;;;;;10.00;5.70;;;;;;;2.92;100.00;99757.94;2073426;28;20053;-66
2021/12/04 01:24:22;;;;;;;5.63;5.03;;;;;;;2.91;100.00;99751.09;2064711;28;20027;-66
2021/12/04 01:25:23;;;;;;;6.93;6.10;;;;;;;2.91;100.00;99751.09;2056663;28;20570;-66
2021/12/04 01:26:23;;;;;;;7.13;5.70;;;;;;;2.91;100.00;99751.09;2064781;28;20022;-66
2021/12/04 01:27:23;;;;;;;6.70;6.00;;;;;;;2.91;100.00;99751.09;2073494;28;20490;-64
2021/12/04 01:28:24;;;;;;;6.40;5.07;;;;;;;2.91;100.00;99745.94;2073391;28;20280;-66
2021/12/04 01:29:24;;;;;;;6.47;5.80;;;;;;;2.90;100.00;99745.09;2073478;28;20030;-66
2021/12/04 01:30:24;;;;;;;7.10;5.53;;;;;;;2.90;100.00;99745.09;2073510;28;20120;-66
2021/12/04 01:31:25;;;;;;;6.87;6.07;;;;;;;2.92;100.00;99752.78;2073445;28;20104;-66
2021/12/04 01:32:25;;;;;;;7.82;6.50;;;;;;;2.90;100.00;99747.66;2073407;28;20026;-66
2021/12/04 01:33:27;;;;;;;;;;;;;;;2.93;100.00;99749.31;2073844;28;20057;-66
2021/12/04 01:34:27;;;;;;;5.82;5.15;;;;;;;2.94;100.00;99745.81;2073403;28;19953;-66
2021/12/04 01:35:27;;;;;;;8.33;5.57;;;;;;;2.94;100.00;99748.41;2073415;28;20512;-66
2021/12/04 01:36:29;;;;;;;6.37;4.87;;;;;;;2.93;100.00;99739.84;2073409;28;20532;-66
2021/12/04 01:37:29;;;;;;;;;;;;;;;2.95;100.00;99737.22;2073847;28;20109;-66
2021/12/04 01:38:29;;;;;;;5.63;4.93;;;;;;;2.94;100.00;99738.94;2064571;28;20406;-66
2021/12/04 01:39:30;;;;;;;7.03;5.33;;;;;;;2.94;100.00;99731.22;2064752;28;20121;-66
2021/12/04 01:40:31;;;;;;;7.72;5.57;;;;;;;2.94;100.00;99730.38;2073307;28;20041;-66
2021/12/04 01:41:33;;;;;;;6.87;5.60;;;;;;;2.95;100.00;99726.91;2073305;28;20447;-67
2021/12/04 01:42:35;;;;;;;7.97;6.05;;;;;;;2.96;100.00;99733.75;2073319;28;20022;-66
2021/12/04 01:43:36;;;;;;;8.20;5.65;;;;;;;2.95;100.00;99732.91;2073062;28;20122;-66
2021/12/04 01:44:36;;;;;;;7.50;5.80;;;;;;;2.95;100.00;99738.06;2073341;28;20040;-67
2021/12/04 01:45:37;;;;;;;7.40;6.23;;;;;;;2.95;100.00;99734.66;2073308;28;20103;-67
2021/12/04 01:46:37;;;;;;;8.27;5.97;;;;;;;2.96;100.00;99741.50;2073357;28;20103;-66
2021/12/04 01:47:37;;;;;;;7.03;6.03;;;;;;;2.96;100.00;99733.75;2064548;28;20085;-67
2021/12/04 01:48:38;;;;;;;8.23;6.27;;;;;;;2.97;100.00;99738.00;2064557;28;20026;-66
2021/12/04 01:49:38;;;;;;;7.70;5.63;;;;;;;2.96;100.00;99744.91;2056485;28;20026;-66
2021/12/04 01:50:39;;;;;;;7.53;5.97;;;;;;;2.97;100.00;99735.44;2064657;28;20026;-66
2021/12/04 01:51:39;;;;;;;6.80;6.05;;;;;;;2.97;100.00;99740.59;2074798;28;20026;-67
2021/12/04 01:52:40;;;;;;;5.77;4.87;;;;;;;2.97;100.00;99732.84;2074746;28;20383;-66
2021/12/04 01:53:40;;;;;;;7.70;6.27;;;;;;;2.98;100.00;99732.00;2066046;28;20018;-67
2021/12/04 01:54:40;;;;;;;6.53;5.63;;;;;;;2.98;100.00;99729.41;2066028;28;20054;-66
2021/12/04 01:55:41;;;;;;;6.07;5.47;;;;;;;2.99;100.00;99725.94;2066026;28;20026;-66
2021/12/04 01:56:42;;;;;;;7.95;6.10;;;;;;;3.00;100.00;99729.34;2074077;28;20017;-66
2021/12/04 01:57:42;;;;;;;7.03;6.33;;;;;;;3.00;100.00;99730.19;2074177;28;20022;-65
2021/12/04 01:58:43;;;;;;;7.23;5.70;;;;;;;3.00;100.00;99725.03;2074712;28;20076;-66
2021/12/04 01:59:43;;;;;;;7.72;6.10;;;;;;;3.01;100.00;99728.47;2074807;28;20033;-66
2021/12/04 02:00:44;;;;;;;7.25;5.43;;;;;;;3.02;100.00;99727.59;2074818;28;20075;-66
2021/12/04 02:01:44;;;;;;;6.72;6.07;;;;;;;3.02;100.00;99728.44;2074759;28;20109;-66
2021/12/04 02:02:45;;;;;;;6.37;5.10;;;;;;;3.02;100.00;99725.00;2065891;28;20355;-66
2021/12/04 02:03:45;;;;;;;8.02;6.03;;;;;;;3.02;100.00;99725.00;2065732;28;20022;-66
2021/12/04 02:04:46;;;;;;;5.53;4.97;;;;;;;3.03;100.00;99724.09;2057889;28;20082;-67
2021/12/04 02:05:47;;;;;;;6.70;5.53;;;;;;;3.03;100.00;99724.09;2065879;28;20022;-66
2021/12/04 02:06:47;;;;;;;;;;;;;;;3.03;100.00;99724.97;2066522;28;20030;-67
2021/12/04 02:07:47;;;;;;;7.80;5.47;;;;;;;3.03;100.00;99724.97;2074662;28;20418;-67
2021/12/04 02:08:48;;;;;;;6.50;5.00;;;;;;;3.04;100.00;99731.81;2074698;28;20033;-66
2021/12/04 02:09:48;;;;;;;6.33;5.00;;;;;;;3.04;100.00;99721.50;2074687;28;20109;-66
2021/12/04 02:10:52;;;;;;;6.67;5.87;;;;;;;3.04;100.00;99713.75;2065842;28;20492;-65
2021/12/04 02:11:53;;;;;;;6.15;5.03;;;;;;;3.05;100.00;99712.84;2066559;28;20321;-66
2021/12/04 02:12:53;;;;;;;6.57;5.00;;;;;;;3.05;100.00;99712.84;2066094;28;20034;-66
2021/12/04 02:13:53;;;;;;;8.53;5.60;;;;;;;3.05;100.00;99712.03;2065989;28;20089;-66
2021/12/04 02:14:53;;;;;;;6.80;5.73;;;;;;;3.04;100.00;99711.19;2065946;28;20493;-66
2021/12/04 02:15:54;;;;;;;7.67;5.87;;;;;;;3.04;100.00;99711.19;2065951;28;20026;-66
2021/12/04 02:16:54;;;;;;;8.20;5.95;;;;;;;3.04;100.00;99706.03;2074580;28;20099;-66
2021/12/04 02:17:55;;;;;;;6.90;5.17;;;;;;;3.04;100.00;99698.28;2074563;28;20025;-66
2021/12/04 02:18:56;;;;;;;6.07;5.10;;;;;;;3.05;100.00;99691.41;2074618;28;20025;-66
2021/12/04 02:19:56;;;;;;;6.13;5.47;;;;;;;3.05;100.00;99687.06;2074606;28;20018;-66
2021/12/04 02:20:56;;;;;;;6.33;5.37;;;;;;;3.04;100.00;99689.69;2074671;28;20434;-66
2021/12/04 02:21:57;;;;;;;8.07;6.53;;;;;;;3.03;100.00;99688.88;2074594;28;20018;-66
2021/12/04 02:22:57;;;;;;;7.57;5.17;;;;;;;3.03;100.00;99680.28;2065893;28;20050;-68
2021/12/04 02:23:57;;;;;;;6.60;5.17;;;;;;;3.04;100.00;99685.41;2065856;28;20108;-67
2021/12/04 02:24:58;;;;;;;7.57;5.85;;;;;;;3.04;100.00;99680.25;2074535;28;20105;-68
2021/12/04 02:25:58;;;;;;;5.73;4.90;;;;;;;3.06;100.00;99680.19;2074502;28;20021;-67
2021/12/04 02:26:58;;;;;;;8.40;5.43;;;;;;;3.03;100.00;99676.00;2074581;28;20022;-68
2021/12/04 02:28:00;;;;;;;5.40;4.60;;;;;;;3.03;100.00;99678.56;2074506;28;20022;-66
2021/12/04 02:29:00;;;;;;;5.63;5.03;;;;;;;3.03;100.00;99672.56;2074471;28;20026;-66
2021/12/04 02:30:03;;;;;;;5.38;4.85;;;;;;;3.02;100.00;99668.28;2074508;28;20033;-67
2021/12/04 02:31:04;;;;;;;7.32;4.75;;;;;;;3.03;100.00;99673.41;2074507;28;20095;-65
2021/12/04 02:32:04;;;;;;;5.90;5.15;;;;;;;3.02;100.00;99660.56;2074496;28;20103;-68
2021/12/04 02:33:11;;;;;;;7.53;5.30;;;;;;;3.01;100.00;99664.84;2074528;28;20037;-65
2021/12/04 02:34:21;;;;;;;6.22;4.70;;;;;;;3.00;100.00;99662.31;2065693;28;20289;-66
2021/12/04 02:35:25;;;;;;;6.07;5.40;;;;;;;3.00;100.00;99663.19;2058921;28;20042;-66
2021/12/04 02:36:25;;;;;;;6.20;4.53;;;;;;;3.00;100.00;99652.00;2066035;28;20033;-66
2021/12/04 02:37:25;;;;;;;7.50;4.93;;;;;;;3.00;100.00;99646.84;2074454;28;20112;-67
2021/12/04 02:38:26;;;;;;;5.87;4.97;;;;;;;2.99;100.00;99645.19;2074455;28;20025;-67
2021/12/04 02:39:34;;;;;;;5.43;4.43;;;;;;;2.97;100.00;99652.97;2065582;28;20018;-67
2021/12/04 02:40:34;;;;;;;6.45;4.88;;;;;;;2.97;100.00;99650.38;2066649;28;20034;-67
2021/12/04 02:41:34;;;;;;;6.10;4.40;;;;;;;2.96;100.00;99652.13;2074457;28;20033;-66
2021/12/04 02:42:35;;;;;;;6.90;4.57;;;;;;;2.96;100.00;99652.13;2074470;28;20382;-67
2021/12/04 02:43:36;;;;;;;5.68;4.30;;;;;;;2.96;100.00;99651.28;2074063;28;20069;-67
2021/12/04 02:44:38;;;;;;;5.90;4.55;;;;;;;2.96;100.00;99653.84;2065601;28;20138;-67
2021/12/04 02:45:39;;;;;;;4.57;4.10;;;;;;;2.95;100.00;99644.44;2065864;28;20042;-66
2021/12/04 02:46:39;;;;;;;7.05;4.93;;;;;;;2.95;100.00;99641.88;2065709;28;20042;-67
2021/12/04 02:47:40;;;;;;;6.47;4.87;;;;;;;2.95;100.00;99647.84;2065687;28;20054;-66
2021/12/04 02:48:46;;;;;;;6.35;4.60;;;;;;;2.95;100.00;99639.28;2074351;28;20105;-66
2021/12/04 02:49:47;;;;;;;5.00;4.05;;;;;;;2.94;100.00;99643.59;2074365;28;20017;-66
2021/12/04 02:50:47;;;;;;;4.40;3.50;;;;;;;2.95;100.00;99647.84;2074321;28;20424;-66
2021/12/04 02:51:47;;;;;;;4.87;3.97;;;;;;;2.95;100.00;99639.28;2074398;28;20025;-66
2021/12/04 02:52:47;;;;;;;6.17;4.53;;;;;;;2.96;100.00;99643.53;2065489;28;20432;-66
2021/12/04 02:53:48;;;;;;;8.00;4.20;;;;;;;2.96;100.00;99643.53;2065621;28;20463;-66
2021/12/04 02:54:49;;;;;;;6.43;4.07;;;;;;;2.97;100.00;99647.81;2074321;28;20028;-66
2021/12/04 02:55:52;;;;;;;4.55;4.00;;;;;;;2.99;100.00;99651.19;2065477;28;20133;-67
2021/12/04 02:56:53;;;;;;;6.10;4.43;;;;;;;2.99;100.00;99652.91;2065971;28;20110;-66
2021/12/04 02:57:53;;;;;;;5.63;4.27;;;;;;;2.99;100.00;99651.19;2065553;28;20037;-66
2021/12/04 02:59:00;;;;;;;4.47;3.77;;;;;;;2.99;100.00;99648.63;2057478;28;20026;-66
2021/12/04 03:00:00;;;;;;;4.35;3.92;;;;;;;3.01;100.00;99658.88;2065511;28;20037;-66
2021/12/04 03:01:02;;;;;;;5.10;4.20;;;;;;;3.01;100.00;99656.31;2065628;28;20113;-67
2021/12/04 03:02:10;;;;;;;4.28;3.70;;;;;;;3.01;100.00;99657.13;2074202;28;20057;-66
2021/12/04 03:03:10;;;;;;;5.25;4.00;;;;;;;3.01;100.00;99646.81;2073597;28;20407;-65
2021/12/04 03:04:12;;;;;;;5.30;4.03;;;;;;;3.00;100.00;99649.44;2074332;28;20025;-66
2021/12/04 03:05:13;;;;;;;5.20;3.97;;;;;;;3.00;100.00;99645.13;2074200;28;20080;-66
2021/12/04 03:06:13;;;;;;;6.93;4.25;;;;;;;3.00;100.00;99645.13;2065460;28;20113;-67
2021/12/04 03:07:14;;;;;;;7.43;3.90;;;;;;;3.00;100.00;99644.28;2065589;28;20037;-66
2021/12/04 03:08:16;;;;;;;4.05;2.88;;;;;;;3.00;100.00;99637.41;2074167;28;20081;-67
2021/12/04 03:09:16;;;;;;;;;;;;;;;3.02;100.00;99643.38;2074670;28;20032;-66
2021/12/04 03:10:17;;;;;;;5.82;3.60;;;;;;;3.01;100.00;99639.09;2074226;28;19915;-66
2021/12/04 03:11:17;;;;;;;4.15;2.92;;;;;;;3.02;100.00;99645.09;2074230;28;20022;-66
2021/12/04 03:12:23;;;;;;;4.10;3.43;;;;;;;3.01;100.00;99644.25;2074201;28;20551;-67
2021/12/04 03:13:23;;;;;;;4.45;3.17;;;;;;;3.00;100.00;99642.56;2074212;28;20030;-65
2021/12/04 03:14:23;;;;;;;3.45;2.85;;;;;;;3.00;100.00;99639.97;2074217;28;20038;-66
2021/12/04 03:15:24;;;;;;;3.90;3.10;;;;;;;3.00;100.00;99639.97;2074218;28;20030;-66
2021/12/04 03:16:25;;;;;;;4.73;3.63;;;;;;;2.98;100.00;99634.03;2074154;28;20029;-67
2021/12/04 03:17:26;;;;;;;3.53;2.83;;;;;;;2.97;100.00;99629.75;2065373;28;20289;-66
2021/12/04 03:18:27;;;;;;;3.63;3.08;;;;;;;2.98;100.00;99628.03;2065486;28;20026;-67
2021/12/04 03:19:27;;;;;;;4.35;3.08;;;;;;;2.99;100.00;99630.56;2074203;28;20045;-66
2021/12/04 03:20:27;;;;;;;4.93;2.90;;;;;;;2.99;100.00;99625.41;2074301;28;20080;-66
2021/12/04 03:21:28;;;;;;;3.70;3.07;;;;;;;2.99;100.00;99629.72;2074106;28;20141;-66
2021/12/04 03:22:29;;;;;;;4.00;2.78;;;;;;;2.98;100.00;99628.91;2074165;28;20034;-65
2021/12/04 03:23:32;;;;;;;3.47;2.90;;;;;;;2.99;100.00;99633.16;2074027;28;20034;-65
2021/12/04 03:24:35;;;;;;;4.10;2.70;;;;;;;3.00;100.00;99631.41;2074164;28;20061;-66
2021/12/04 03:25:36;;;;;;;4.88;2.72;;;;;;;3.00;100.00;99627.09;2074059;28;20497;-67
2021/12/04 03:26:38;;;;;;;3.70;2.83;;;;;;;3.00;100.00;99627.09;2074172;28;20022;-67
2021/12/04 03:27:40;;;;;;;3.25;2.35;;;;;;;3.01;100.00;99633.94;2074071;28;20204;-66
2021/12/04 03:28:40;;;;;;;3.20;2.63;;;;;;;3.00;100.00;99621.94;2074055;28;20097;-67
2021/12/04 03:29:46;;;;;;;4.10;3.20;;;;;;;3.00;100.00;99627.09;2073962;28;20446;-67
2021/12/04 03:30:59;;;;;;;2.97;2.45;;;;;;;3.00;100.00;99621.94;2065312;28;20026;-68
2021/12/04 03:32:34;;;;;;;3.83;2.65;;;;;;;2.99;100.00;99617.69;2067070;28;20041;-68
2021/12/04 03:41:33;;;;;;;3.63;2.42;;;;;;;3.01;100.00;99608.16;2056940;28;20038;-68
2021/12/04 03:42:35;;;;;;;3.07;2.00;;;;;;;3.00;100.00;99611.63;2071244;28;20430;-67
2021/12/04 03:43:35;;;;;;;3.67;2.30;;;;;;;3.00;100.00;99608.19;2073730;28;20026;-67
2021/12/04 03:44:35;;;;;;;2.83;2.27;;;;;;;3.00;100.00;99611.63;2074021;28;20037;-67
2021/12/04 03:45:39;;;;;;;3.73;2.67;;;;;;;2.99;100.00;99612.53;2073948;28;20494;-67
2021/12/04 03:46:39;;;;;;;3.85;2.42;;;;;;;3.00;100.00;99610.78;2073937;28;20554;-67
2021/12/04 03:47:44;;;;;;;3.10;2.00;;;;;;;3.00;100.00;99601.31;2073998;28;20105;-67
2021/12/04 03:49:46;;;;;;;3.43;2.33;;;;;;;3.00;100.00;99603.91;2074027;28;20391;-67
2021/12/04 03:50:46;;;;;;;2.38;2.03;;;;;;;3.02;100.00;99607.28;2073944;28;20111;-67
2021/12/04 03:51:47;;;;;;;2.87;2.33;;;;;;;3.00;100.00;99601.31;2073935;28;20030;-67
2021/12/04 03:52:47;;;;;;;3.30;2.47;;;;;;;3.02;100.00;99599.56;2073919;28;20025;-68
2021/12/04 03:53:48;;;;;;;3.53;2.55;;;;;;;3.01;100.00;99587.53;2073987;28;20014;-67
2021/12/04 03:54:49;;;;;;;2.72;2.22;;;;;;;3.02;100.00;99594.41;2073903;28;20073;-67
2021/12/04 03:55:50;;;;;;;3.30;1.85;;;;;;;3.03;100.00;99588.34;2073903;28;20110;-67
2021/12/04 03:57:00;;;;;;;;;;;;;;;3.05;100.00;99594.28;2065509;28;20019;-67
2021/12/04 03:58:01;;;;;;;4.22;2.10;;;;;;;3.04;100.00;99591.75;2066555;28;20056;-67
2021/12/04 03:59:01;;;;;;;3.10;2.37;;;;;;;3.03;100.00;99598.66;2073882;28;20025;-67
2021/12/04 04:00:04;;;;;;;2.73;2.43;;;;;;;3.03;100.00;99588.34;2073900;28;20432;-67
2021/12/04 04:01:04;;;;;;;2.88;2.30;;;;;;;3.04;100.00;99595.19;2073822;28;20425;-67
2021/12/04 04:02:07;;;;;;;2.10;1.80;;;;;;;3.04;100.00;99590.03;2073931;28;20034;-67
2021/12/04 04:03:07;;;;;;;3.38;2.58;;;;;;;3.04;100.00;99596.91;2073815;28;20034;-67
2021/12/04 04:04:07;;;;;;;3.50;2.23;;;;;;;3.05;100.00;99588.28;2073830;28;20116;-67
2021/12/04 04:05:08;;;;;;;2.80;2.40;;;;;;;3.04;100.00;99592.59;2065069;28;20065;-67
2021/12/04 04:06:09;;;;;;;2.10;1.77;;;;;;;3.04;100.00;99596.91;2065095;28;20058;-67
2021/12/04 04:07:09;;;;;;;2.30;1.93;;;;;;;3.03;100.00;99596.06;2073808;28;20034;-67
2021/12/04 04:08:11;;;;;;;2.43;1.80;;;;;;;3.03;100.00;99601.22;2065009;28;20026;-67
2021/12/04 04:09:12;;;;;;;3.72;2.25;;;;;;;3.03;100.00;99601.22;2065241;28;20018;-67
2021/12/04 04:10:13;;;;;;;3.97;2.55;;;;;;;3.03;100.00;99596.06;2073747;28;20046;-67
2021/12/04 04:11:14;;;;;;;2.50;1.98;;;;;;;3.02;100.00;99584.09;2073778;28;20025;-67
2021/12/04 04:12:14;;;;;;;3.70;2.10;;;;;;;3.03;100.00;99584.91;2064939;28;20060;-67
2021/12/04 04:13:14;;;;;;;2.97;2.67;;;;;;;3.02;100.00;99584.09;2065081;28;20026;-67
2021/12/04 04:14:14;;;;;;;2.83;1.90;;;;;;;3.03;100.00;99584.91;2064951;28;20373;-67
2021/12/04 04:15:15;;;;;;;3.80;2.40;;;;;;;3.03;100.00;99577.19;2064985;28;20086;-67
2021/12/04 04:16:16;;;;;;;3.00;2.00;;;;;;;3.04;100.00;99578.84;2064907;28;20030;-67
2021/12/04 04:17:16;;;;;;;5.37;2.53;;;;;;;3.04;100.00;99577.13;2065088;28;20030;-67
2021/12/04 04:18:16;;;;;;;2.23;1.93;;;;;;;3.03;100.00;99574.59;2064806;28;20034;-68
2021/12/04 04:19:17;;;;;;;2.20;2.00;;;;;;;3.04;100.00;99579.72;2065039;28;20026;-67
2021/12/04 04:20:21;;;;;;;3.70;2.33;;;;;;;3.05;100.00;99578.81;2073662;28;20164;-67
2021/12/04 04:21:21;;;;;;;2.78;2.40;;;;;;;3.04;100.00;99576.28;2073642;28;20026;-67
2021/12/04 04:22:21;;;;;;;3.27;1.80;;;;;;;3.05;100.00;99572.84;2073655;28;20406;-67
2021/12/04 04:23:21;;;;;;;3.23;1.70;;;;;;;3.05;100.00;99573.66;2073672;28;20109;-67
2021/12/04 04:24:23;;;;;;;2.70;1.97;;;;;;;3.06;100.00;99579.66;2073660;28;20022;-67
2021/12/04 04:25:24;;;;;;;2.67;1.98;;;;;;;3.06;100.00;99575.38;2073771;28;20057;-67
2021/12/04 04:26:24;;;;;;;3.00;1.87;;;;;;;3.05;100.00;99568.50;2073700;28;20033;-67
2021/12/04 04:27:24;;;;;;;2.90;2.10;;;;;;;3.06;100.00;99570.22;2064876;28;20030;-67
2021/12/04 04:28:25;;;;;;;3.70;1.70;;;;;;;3.07;100.00;99577.03;2064963;28;20129;-67
2021/12/04 04:29:26;;;;;;;2.80;2.00;;;;;;;3.07;100.00;99573.59;2073688;28;20030;-67
2021/12/04 04:30:26;;;;;;;2.70;1.77;;;;;;;3.08;100.00;99565.81;2073620;28;20490;-67
2021/12/04 04:31:28;;;;;;;2.20;1.80;;;;;;;3.08;100.00;99570.97;2073692;28;20080;-68
2021/12/04 04:32:29;;;;;;;2.75;1.58;;;;;;;3.08;100.00;99576.13;2073652;28;20033;-67
2021/12/04 04:33:35;;;;;;;2.53;1.80;;;;;;;3.08;100.00;99573.56;2064872;28;20037;-67
2021/12/04 04:34:37;;;;;;;2.40;1.85;;;;;;;3.09;100.00;99569.25;2065659;28;20154;-67
2021/12/04 04:35:38;;;;;;;2.70;1.83;;;;;;;3.09;100.00;99566.69;2073647;28;20053;-67
2021/12/04 04:40:38;;;;;;;2.77;1.90;;;;;;;3.09;100.00;99564.94;2073778;28;20065;-67
2021/12/04 05:11:06;;;;;;;3.42;1.70;;;;;;;3.12;100.00;99561.44;2073662;28;20065;-67
2021/12/04 05:13:15;;;;;;;2.75;1.60;;;;;;;3.12;100.00;99558.00;2073700;28;20087;-67
2021/12/04 05:14:19;;;;;;;2.45;1.80;;;;;;;3.14;100.00;99553.63;2073451;28;20025;-67
2021/12/04 05:16:11;;;;;;;3.15;1.75;;;;;;;3.13;100.00;99552.81;2073529;28;20029;-67
2021/12/04 05:16:49;;;;;;;2.42;1.58;;;;;;;3.13;100.00;99546.78;2066033;28;20545;-67
2021/12/04 05:19:11;;;;;;;2.67;1.60;;;;;;;3.14;100.00;99540.72;2073554;28;20030;-68
2021/12/04 05:20:14;;;;;;;5.68;2.17;;;;;;;3.14;100.00;99530.41;2073122;28;20092;-67
2021/12/04 05:21:14;;;;;;;2.85;1.73;;;;;;;3.14;100.00;99536.44;2064779;28;20050;-66
2021/12/04 05:22:15;;;;;;;3.10;1.93;;;;;;;3.15;100.00;99529.56;2064763;28;20023;-67
2021/12/04 05:23:15;;;;;;;3.42;2.20;;;;;;;3.15;100.00;99526.97;2073317;28;20106;-66
2021/12/04 05:24:15;;;;;;;3.05;2.13;;;;;;;3.14;100.00;99527.84;2073450;28;20026;-66
2021/12/04 05:25:16;;;;;;;3.53;1.90;;;;;;;3.15;100.00;99527.81;2073442;28;20440;-66
2021/12/04 05:26:28;;;;;;;6.05;2.15;;;;;;;3.15;100.00;99527.81;2074372;28;20093;-67
2021/12/04 05:27:28;;;;;;;4.45;2.10;;;;;;;3.17;100.00;99530.34;2066256;28;20018;-67
2021/12/04 05:28:29;;;;;;;2.60;1.70;;;;;;;3.16;100.00;99526.06;2066324;28;20495;-67
2021/12/04 05:29:29;;;;;;;2.63;1.83;;;;;;;3.16;100.00;99536.38;2074936;28;20037;-67
2021/12/04 05:30:30;;;;;;;3.07;2.17;;;;;;;3.15;100.00;99532.13;2074882;28;20430;-67
2021/12/04 05:31:30;;;;;;;2.40;1.70;;;;;;;3.15;100.00;99534.72;2066171;28;20030;-66
2021/12/04 05:32:30;;;;;;;3.43;1.60;;;;;;;3.15;100.00;99537.28;2066269;28;20065;-66
2021/12/04 05:33:30;;;;;;;3.20;1.80;;;;;;;3.16;100.00;99538.97;2066257;28;20057;-66
2021/12/04 05:34:34;;;;;;;2.90;2.07;;;;;;;3.17;100.00;99535.50;2074851;28;20038;-67
2021/12/04 05:35:34;;;;;;;3.00;2.00;;;;;;;3.18;100.00;99532.03;2074906;28;20069;-66
2021/12/04 05:36:35;;;;;;;3.50;2.08;;;;;;;3.19;100.00;99533.72;2066198;28;20076;-67
2021/12/04 05:37:35;;;;;;;3.13;1.93;;;;;;;3.19;100.00;99533.72;2066290;28;20022;-66
2021/12/04 05:38:36;;;;;;;2.77;2.13;;;;;;;3.21;100.00;99537.06;2074923;28;20104;-67
2021/12/04 05:39:37;;;;;;;2.28;1.58;;;;;;;3.20;100.00;99532.81;2066216;28;20077;-66
2021/12/04 05:40:37;;;;;;;3.47;2.00;;;;;;;3.19;100.00;99533.72;2066286;28;20113;-67
2021/12/04 05:41:38;;;;;;;4.33;1.90;;;;;;;3.20;100.00;99536.25;2066154;28;20046;-67
2021/12/04 05:42:38;;;;;;;3.67;1.88;;;;;;;3.21;100.00;99531.91;2066109;28;20034;-67
2021/12/04 05:43:38;;;;;;;3.23;1.90;;;;;;;3.21;100.00;99531.91;2074844;28;20025;-67
2021/12/04 05:44:40;;;;;;;3.33;1.80;;;;;;;3.21;100.00;99534.50;2065968;28;20038;-68
2021/12/04 05:45:47;;;;;;;2.50;1.48;;;;;;;3.21;100.00;99535.34;2066480;28;20113;-67
2021/12/04 05:46:59;;;;;;;7.03;3.85;;;;;;;3.22;100.00;99536.19;2074913;28;20097;-67
2021/12/04 05:48:14;;;;;;;2.80;1.65;;;;;;;3.22;100.00;99538.78;2074944;28;20018;-67